Flight Track Log - Related Links

Times and Time Zones

All times are in EDT time to prevent confusion due to time zone crossing. See the AAL1459 flight status page for this flight to view local times or setup timezone preferences in your user account.

Time Position Orientation Groundspeed Altitude Reporting Facility
EDT Latitude Longitude Course Direction KTS MPH feet Rate Location/Type
Tue 06:55:53 PM 41.9690 -87.9010 217° Southwest 90 104  Level FlightAware ADS-B
Tue 06:56:22 PM 41.9690 -87.9290 270° West 187 215 900 2,654 Climbing FlightAware ADS-B
Tue 06:56:45 PM 41.9720 -87.9540 279° West 176 203 2,300 2,591 Climbing FlightAware ADS-B
Tue 06:57:06 PM 41.9780 -87.9790 288° West 203 234 2,800 1,347 Climbing FlightAware ADS-B
Tue 06:57:34 PM 41.9870 -88.0160 288° West 238 274 3,400 1,750 Climbing FlightAware ADS-B
Tue 06:57:54 PM 41.9940 -88.0450 288° West 249 287 4,200 2,571 Climbing FlightAware ADS-B
Tue 06:58:16 PM 42.0020 -88.0760 289° West 249 287 5,200 2,634 Climbing FlightAware ADS-B
Tue 06:58:35 PM 42.0090 -88.1040 289° West 252 290 6,000 2,550 Climbing FlightAware ADS-B
Tue 06:58:56 PM 42.0170 -88.1370 288° West 257 296 6,900 2,167 Climbing FlightAware ADS-B
Tue 06:59:11 PM 42.0220 -88.1610 286° West 270 311 7,300 2,250 Climbing FlightAware ADS-B
Tue 06:59:36 PM 42.0300 -88.2010 285° West 276 318 8,400 2,809 Climbing FlightAware ADS-B
Tue 06:59:58 PM 42.0370 -88.2370 285° West 275 316 9,500 2,906 Climbing FlightAware ADS-B
Tue 07:00:40 PM 42.0520 -88.3090 286° West 284 327 11,500 2,057 Climbing FlightAware ADS-B
Tue 07:01:43 PM 42.0810 -88.4300 288° West 344 396 13,100 1,747 Climbing FlightAware ADS-B
Tue 07:01:59 PM 42.0880 -88.4620 286° West 350 403 13,800 2,604 Climbing FlightAware ADS-B
Tue 07:02:36 PM 42.1060 -88.5420 287° West 361 415 15,400 2,727 Climbing FlightAware ADS-B
Tue 07:03:27 PM 42.1280 -88.6530 285° West 367 422 17,800 2,598 Climbing FlightAware ADS-B
Tue 07:04:13 PM 42.1460 -88.7570 283° West 379 436 19,600 2,458 Climbing FlightAware ADS-B
Tue 07:04:50 PM 42.1540 -88.8440 277° West 382 440 21,200 2,459 Climbing FlightAware ADS-B
Tue 07:05:14 PM 42.1570 -88.9020 274° West 385 443 22,100 2,370 Climbing FlightAware ADS-B
Tue 07:06:11 PM 42.1580 -89.0310 271° West 380 437 24,400 2,365 Climbing FlightAware ADS-B
Tue 07:06:58 PM 42.1550 -89.1460 268° West 381 438 26,200 1,856 Climbing FlightAware ADS-B
Tue 07:07:48 PM 42.1520 -89.2670 268° West 391 450 27,400 1,459 Climbing FlightAware ADS-B
Tue 07:08:49 PM 42.1470 -89.4160 267° West 399 459 28,900 1,729 Climbing FlightAware ADS-B
Tue 07:09:46 PM 42.1430 -89.5580 268° West 391 450 30,800 2,143 Climbing FlightAware ADS-B
Tue 07:10:13 PM 42.1410 -89.6240 268° West 372 428 31,900 1,586 Climbing FlightAware ADS-B
Tue 07:11:13 PM 42.1370 -89.7560 268° West 359 413 33,100 1,390 Climbing FlightAware ADS-B
Tue 07:11:35 PM 42.1360 -89.8070 269° West 354 407 33,800 1,704 Climbing FlightAware ADS-B
Tue 07:12:34 PM 42.1310 -89.9330 267° West 343 395 35,400 1,297 Climbing FlightAware ADS-B
Tue 07:13:26 PM 42.1280 -90.0410 268° West 345 397 36,200 878 Climbing FlightAware ADS-B
Tue 07:13:56 PM 42.1250 -90.1110 267° West 347 399 36,600 822 Climbing FlightAware ADS-B
Tue 07:14:39 PM 42.1310 -90.1980 275° West 349 402 37,200 776 Climbing FlightAware ADS-B
Tue 07:15:21 PM 42.1550 -90.2860 290° West 353 406 37,700 539 Climbing FlightAware ADS-B
Tue 07:16:08 PM 42.1830 -90.3800 292° West 355 409 38,000 188 Climbing FlightAware ADS-B
Tue 07:16:57 PM 42.2140 -90.4790 293° West 356 410 38,000  Level FlightAware ADS-B
Tue 07:17:39 PM 42.2400 -90.5650 292° West 356 410 38,000  Level FlightAware ADS-B
Tue 07:18:09 PM 42.2600 -90.6310 292° West 355 409 38,000  Level FlightAware ADS-B
Tue 07:18:45 PM 42.2820 -90.7030 292° West 355 409 38,000  Level FlightAware ADS-B
Tue 07:19:21 PM 42.3050 -90.7800 292° West 353 406 38,000  Level FlightAware ADS-B
Tue 07:19:43 PM 42.3180 -90.8230 292° West 353 406 38,000  Level FlightAware ADS-B
Tue 07:20:42 PM 42.3540 -90.9410 292° West 352 405 38,000  Level FlightAware ADS-B
Tue 07:21:11 PM 42.3730 -91.0040 292° West 352 405 38,000  Level FlightAware ADS-B
Tue 07:22:19 PM 42.4130 -91.1390 292° West 351 404 38,000  Level FlightAware ADS-B
Tue 07:22:51 PM 42.4410 -91.2020 301° West 361 415 38,000  Level FlightAware ADS-B
Tue 07:23:10 PM 42.4580 -91.2310 308° West 361 415 38,000 553 Level FlightAware ADS-B
Tue 07:24:07 PM 42.5180 -91.3310 309° West 355 409 38,700 723 Climbing FlightAware ADS-B
Tue 07:24:33 PM 42.5460 -91.3780 309° West 349 402 39,000 321 Climbing FlightAware ADS-B
Tue 07:25:03 PM 42.5670 -91.4390 295° West 345 397 39,000  Level FlightAware ADS-B
Tue 07:25:55 PM 42.5970 -91.5440 291° West 349 402 39,000  Level FlightAware ADS-B
Tue 07:26:37 PM 42.6210 -91.6280 291° West 349 402 39,000  Level FlightAware ADS-B
Tue 07:27:05 PM 42.6380 -91.6850 292° West 350 403 39,000  Level FlightAware ADS-B
Tue 07:28:08 PM 42.6749 -91.8166 291° West 352 405 39,000  Level FlightAware ADS-B (LPVM)
Tue 07:29:27 PM 42.7210 -91.9800 291° West 358 412 39,000  Level FlightAware ADS-B
Tue 07:30:14 PM 42.7480 -92.0750 291° West 359 413 39,000  Level FlightAware ADS-B
Tue 07:31:13 PM 42.7840 -92.2040 291° West 362 417 39,000  Level FlightAware ADS-B
Tue 07:32:06 PM 42.8157 -92.3193 291° West 362 417 39,000  Level FlightAware ADS-B (LPVM)
Tue 07:32:45 PM 42.8370 -92.3970 291° West 362 417 39,000  Level FlightAware ADS-B
Tue 07:33:31 PM 42.8660 -92.5000 291° West 363 418 39,000  Level FlightAware ADS-B
Tue 07:34:15 PM 42.8910 -92.5910 291° West 362 417 39,000  Level FlightAware ADS-B
Tue 07:35:03 PM 42.9190 -92.6930 291° West 361 415 39,000  Level FlightAware ADS-B
Tue 07:35:51 PM 42.9460 -92.7940 290° West 360 414 39,000  Level FlightAware ADS-B
Tue 07:36:14 PM 42.9600 -92.8450 291° West 360 414 39,000  Level FlightAware ADS-B
Tue 07:36:51 PM 42.9810 -92.9220 290° West 360 414 39,000  Level FlightAware ADS-B
Tue 07:37:51 PM 43.0150 -93.0480 290° West 360 414 39,000  Level FlightAware ADS-B
Tue 07:38:19 PM 43.0320 -93.1120 290° West 361 415 39,000  Level FlightAware ADS-B
Tue 07:39:15 PM 43.0630 -93.2280 290° West 364 419 39,000  Level FlightAware ADS-B
Tue 07:40:07 PM 43.0940 -93.3430 290° West 366 421 39,000  Level FlightAware ADS-B
Tue 07:40:33 PM 43.1100 -93.4020 290° West 366 421 39,000  Level FlightAware ADS-B
Tue 07:41:37 PM 43.1460 -93.5410 290° West 368 423 39,000  Level FlightAware ADS-B
Tue 07:42:29 PM 43.1760 -93.6530 290° West 369 425 39,000  Level FlightAware ADS-B
Tue 07:43:00 PM 43.1940 -93.7230 289° West 370 426 39,000  Level FlightAware ADS-B
Tue 07:43:53 PM 43.2250 -93.8410 290° West 371 427 39,000  Level FlightAware ADS-B
Tue 07:44:17 PM 43.2380 -93.8920 289° West 371 427 39,000  Level FlightAware ADS-B
Tue 07:45:09 PM 43.2680 -94.0080 290° West 371 427 39,000  Level FlightAware ADS-B
Tue 07:46:09 PM 43.3020 -94.1400 290° West 371 427 39,000  Level FlightAware ADS-B
Tue 07:46:41 PM 43.3210 -94.2120 290° West 371 427 39,000  Level FlightAware ADS-B
Tue 07:47:33 PM 43.3500 -94.3260 289° West 370 426 39,000  Level FlightAware ADS-B
Tue 07:48:18 PM 43.3750 -94.4240 289° West 370 426 39,000  Level FlightAware ADS-B
Tue 07:49:17 PM 43.4090 -94.5580 289° West 371 427 39,000  Level FlightAware ADS-B
Tue 07:49:43 PM 43.4240 -94.6160 290° West 372 428 39,000  Level FlightAware ADS-B
Tue 07:50:36 PM 43.4530 -94.7330 289° West 374 430 39,000  Level FlightAware ADS-B
Tue 07:51:19 PM 43.4770 -94.8310 289° West 375 432 39,000  Level FlightAware ADS-B
Tue 07:52:03 PM 43.5030 -94.9320 290° West 377 434 39,000  Level FlightAware ADS-B
Tue 07:52:52 PM 43.5300 -95.0440 288° West 378 435 39,000  Level FlightAware ADS-B
Tue 07:53:35 PM 43.5549 -95.1433 289° West 380 437 39,000  Level FlightAware ADS-B (LPVM)
Tue 07:54:23 PM 43.5813 -95.2501 289° West 379 436 39,000  Level FlightAware ADS-B (LPVM)
Tue 07:54:55 PM 43.6000 -95.3250 289° West 377 434 39,000  Level FlightAware ADS-B
Tue 07:55:53 PM 43.6320 -95.4580 288° West 376 433 39,000  Level FlightAware ADS-B
Tue 07:56:47 PM 43.6620 -95.5800 289° West 375 432 39,000  Level FlightAware ADS-B
Tue 07:57:15 PM 43.6770 -95.6420 289° West 374 430 39,000  Level FlightAware ADS-B
Tue 07:58:12 PM 43.7070 -95.7690 288° West 373 429 39,000  Level FlightAware ADS-B
Tue 07:58:43 PM 43.7250 -95.8420 289° West 371 427 39,000  Level FlightAware ADS-B
Tue 07:59:44 PM 43.7560 -95.9750 288° West 372 428 39,000  Level FlightAware ADS-B
Tue 08:00:12 PM 43.7720 -96.0410 289° West 372 428 39,000  Level FlightAware ADS-B
Tue 08:00:41 PM 43.7870 -96.1060 288° West 372 428 39,000  Level FlightAware ADS-B
Tue 08:01:33 PM 43.8150 -96.2250 288° West 373 429 39,000  Level FlightAware ADS-B
Tue 08:02:01 PM 43.8300 -96.2860 289° West 373 429 39,000  Level FlightAware ADS-B
Tue 08:02:51 PM 43.8568 -96.4020 288° West 374 430 39,000  Level FlightAware ADS-B
Tue 08:03:41 PM 43.8830 -96.5160 288° West 374 430 39,000  Level FlightAware ADS-B
Tue 08:04:43 PM 43.9158 -96.6571 288° West 374 430 39,000  Level FlightAware ADS-B
Tue 08:06:08 PM 43.9533 -96.8204 288° West 372 428 39,000  Level FlightAware ADS-B
Tue 08:07:04 PM 43.9890 -96.9760 288° West 373 429 39,000  Level FlightAware ADS-B
Tue 08:07:51 PM 44.0130 -97.0810 288° West 374 430 39,000  Level FlightAware ADS-B
Tue 08:08:59 PM 44.0489 -97.2425 287° West 377 434 39,000  Level FlightAware ADS-B
Tue 08:10:00 PM 44.0800 -97.3840 287° West 380 437 39,000  Level FlightAware ADS-B
Tue 08:10:54 PM 44.1080 -97.5080 287° West 384 442 39,000  Level FlightAware ADS-B
Tue 08:11:46 PM 44.1350 -97.6290 287° West 386 444 39,000  Level FlightAware ADS-B
Tue 08:12:30 PM 44.1580 -97.7360 287° West 387 445 39,000  Level FlightAware ADS-B
Tue 08:12:55 PM 44.1690 -97.7870 287° West 387 445 39,000  Level FlightAware ADS-B
Tue 08:13:48 PM 44.1990 -97.9230 287° West 389 448 39,000  Level FlightAware ADS-B
Tue 08:14:42 PM 44.2270 -98.0510 287° West 390 449 39,000  Level FlightAware ADS-B
Tue 08:15:38 PM 44.2560 -98.1890 286° West 392 451 39,000  Level FlightAware ADS-B
Tue 08:16:30 PM 44.2830 -98.3130 287° West 393 452 39,000  Level FlightAware ADS-B
Tue 08:16:56 PM 44.2960 -98.3760 286° West 393 452 39,000  Level FlightAware ADS-B
Tue 08:17:52 PM 44.3260 -98.5130 287° West 395 455 39,000  Level FlightAware ADS-B
Tue 08:18:41 PM 44.3510 -98.6320 286° West 396 456 39,000  Level FlightAware ADS-B
Tue 08:19:36 PM 44.3790 -98.7690 286° West 398 458 39,000  Level FlightAware ADS-B
Tue 08:20:17 PM 44.3990 -98.8670 286° West 400 460 39,000  Level FlightAware ADS-B
Tue 08:21:14 PM 44.4290 -99.0120 286° West 401 461 39,000  Level FlightAware ADS-B
Tue 08:22:02 PM 44.4530 -99.1290 286° West 402 463 39,000  Level FlightAware ADS-B
Tue 08:22:54 PM 44.4800 -99.2610 286° West 403 464 39,000  Level FlightAware ADS-B
Tue 08:23:19 PM 44.4930 -99.3220 287° West 404 465 39,000  Level FlightAware ADS-B
Tue 08:24:12 PM 44.5170 -99.4460 285° West 404 465 39,000  Level FlightAware ADS-B
Tue 08:25:12 PM 44.5420 -99.5760 285° West 404 465 39,000  Level FlightAware ADS-B
Tue 08:25:36 PM 44.5520 -99.6270 285° West 404 465 39,000  Level FlightAware ADS-B
Tue 08:26:36 PM 44.5770 -99.7570 285° West 404 465 39,000  Level FlightAware ADS-B
Tue 08:26:49 PM 44.5820 -99.7850 284° West 404 465 39,000  Level FlightAware ADS-B
Tue 08:27:50 PM 44.6070 -99.9160 285° West 404 465 39,000  Level FlightAware ADS-B
Tue 08:28:14 PM 44.6170 -99.9680 285° West 404 465 39,000  Level FlightAware ADS-B
Tue 08:28:38 PM 44.6270 -100.0200 285° West 404 465 39,000  Level FlightAware ADS-B
Tue 08:29:27 PM 44.6470 -100.1250 285° West 404 465 39,000  Level FlightAware ADS-B
Tue 08:30:15 PM 44.6670 -100.2290 285° West 404 465 39,000  Level FlightAware ADS-B
Tue 08:30:52 PM 44.6820 -100.3090 285° West 404 465 39,000  Level FlightAware ADS-B
Tue 08:31:53 PM 44.7070 -100.4400 285° West 404 465 39,000  Level FlightAware ADS-B
Tue 08:32:27 PM 44.7210 -100.5140 285° West 404 465 39,000  Level FlightAware ADS-B
Tue 08:33:28 PM 44.7460 -100.6460 285° West 404 465 39,000  Level FlightAware ADS-B
Tue 08:34:12 PM 44.8097 -100.9647 285° West 411 473 39,000  Level Denver Center
Tue 08:35:13 PM 44.8397 -101.1231 285° West 413 475 39,000  Level Minneapolis Center
Tue 08:36:15 PM 44.8781 -101.3172 286° West 422 486 39,000  Level Minneapolis Center
Tue 08:37:17 PM 44.9078 -101.4783 285° West 424 488 39,000  Level Minneapolis Center
Tue 08:38:20 PM 44.9372 -101.6406 284° West 425 489 39,000  Level Minneapolis Center
Tue 08:39:22 PM 44.9672 -101.8033 285° West 427 491 39,000  Level Minneapolis Center
Tue 08:40:24 PM 44.9961 -101.9656 284° West 427 491 39,000  Level Minneapolis Center
Tue 08:41:26 PM 44.9931 -102.1333 269° West 425 489 39,000  Level Minneapolis Center
Tue 08:42:28 PM 44.9819 -102.3347 266° West 428 493 39,000  Level Minneapolis Center
Tue 08:43:30 PM 44.9719 -102.5028 265° West 430 495 39,000  Level Minneapolis Center
Tue 08:44:32 PM 44.9611 -102.6714 265° West 431 496 39,000  Level Minneapolis Center
Tue 08:45:34 PM 44.9497 -102.8411 265° West 433 498 39,000  Level Minneapolis Center
Tue 08:46:36 PM 44.9389 -103.0086 265° West 431 496 39,000  Level Minneapolis Center
Tue 08:47:39 PM 44.9281 -103.1781 265° West 433 498 39,000  Level Minneapolis Center
Tue 08:48:41 PM 44.9136 -103.3814 264° West 434 499 39,000  Level Minneapolis Center
Tue 08:49:43 PM 44.9022 -103.5517 265° West 436 502 39,000 -48 Level Minneapolis Center
Tue 08:50:45 PM 44.8894 -103.6975 263° West 436 502 38,900  Descending Minneapolis Center
Tue 08:51:42 PM 44.8472 -103.8650 250° West 434 499 39,000 50 Climbing Denver Center
Tue 08:52:44 PM 44.8053 -104.0419 252° West 432 497 39,000  Level Denver Center
Tue 08:58:09 PM 44.5940 -104.9150 252° West 438 504 39,000  Level FlightAware ADS-B
Tue 08:58:44 PM 44.5700 -105.0100 251° West 439 505 39,000  Level FlightAware ADS-B
Tue 08:59:40 PM 44.5320 -105.1610 251° West 440 506 39,000  Level FlightAware ADS-B
Tue 09:00:30 PM 44.4990 -105.2950 251° West 438 504 39,000  Level FlightAware ADS-B
Tue 09:01:22 PM 44.4640 -105.4330 250° West 439 505 39,000  Level FlightAware ADS-B
Tue 09:02:08 PM 44.4330 -105.5570 251° West 441 507 39,000  Level FlightAware ADS-B
Tue 09:03:02 PM 44.3960 -105.7020 250° West 444 511 39,000  Level FlightAware ADS-B
Tue 09:03:23 PM 44.3810 -105.7600 250° West 444 511 39,000  Level FlightAware ADS-B
Tue 09:03:57 PM 44.3650 -105.8530 256° West 447 514 39,000  Level FlightAware ADS-B
Tue 09:04:29 PM 44.3550 -105.9440 261° West 448 516 39,000  Level FlightAware ADS-B
Tue 09:05:23 PM 44.3380 -106.0990 261° West 449 517 39,000  Level FlightAware ADS-B
Tue 09:06:07 PM 44.3240 -106.2230 261° West 449 517 39,000  Level FlightAware ADS-B
Tue 09:07:03 PM 44.3080 -106.3840 262° West 449 517 39,000  Level FlightAware ADS-B
Tue 09:07:41 PM 44.2930 -106.4930 259° West 446 513 39,000  Level FlightAware ADS-B
Tue 09:08:31 PM 44.2580 -106.6260 250° West 444 511 39,000  Level FlightAware ADS-B
Tue 09:08:51 PM 44.2430 -106.6790 248° West 444 511 39,000  Level FlightAware ADS-B
Tue 09:09:26 PM 44.2170 -106.7730 249° West 446 513 39,000  Level FlightAware ADS-B
Tue 09:10:22 PM 44.1760 -106.9230 249° West 446 513 39,000  Level FlightAware ADS-B
Tue 09:11:02 PM 44.1470 -107.0270 249° West 447 514 39,000  Level FlightAware ADS-B
Tue 09:11:53 PM 44.1080 -107.1660 249° West 448 516 39,000  Level FlightAware ADS-B
Tue 09:12:37 PM 44.0760 -107.2810 249° West 449 517 39,000  Level FlightAware ADS-B
Tue 09:13:13 PM 44.0470 -107.3810 248° West 449 517 39,000  Level FlightAware ADS-B
Tue 09:13:42 PM 44.0260 -107.4570 249° West 450 518 39,000  Level FlightAware ADS-B
Tue 09:14:14 PM 44.0010 -107.5460 249° West 451 519 39,000  Level FlightAware ADS-B
Tue 09:15:01 PM 43.9650 -107.6720 248° West 452 520 39,000  Level FlightAware ADS-B
Tue 09:15:53 PM 43.9250 -107.8120 248° West 455 524 39,000  Level FlightAware ADS-B
Tue 09:16:54 PM 43.8780 -107.9760 248° West 455 524 39,000  Level FlightAware ADS-B
Tue 09:17:24 PM 43.8540 -108.0580 248° West 455 524 39,000  Level FlightAware ADS-B
Tue 09:18:17 PM 43.8130 -108.2000 248° West 457 526 39,000  Level FlightAware ADS-B
Tue 09:18:30 PM 43.8030 -108.2350 248° West 457 526 39,000  Level FlightAware ADS-B
Tue 09:19:24 PM 43.7600 -108.3810 248° West 457 526 39,000  Level FlightAware ADS-B
Tue 09:20:20 PM 43.7160 -108.5300 248° West 457 526 39,000  Level FlightAware ADS-B
Tue 09:20:55 PM 43.6880 -108.6240 248° West 457 526 39,000  Level FlightAware ADS-B
Tue 09:21:54 PM 43.6430 -108.7720 247° West 458 527 39,000  Level FlightAware ADS-B
Tue 09:22:18 PM 43.6260 -108.8270 247° West 458 527 39,000  Level FlightAware ADS-B
Tue 09:23:18 PM 43.5840 -108.9640 247° West 458 527 39,000  Level FlightAware ADS-B
Tue 09:23:55 PM 43.5580 -109.0490 247° West 458 527 39,000  Level FlightAware ADS-B
Tue 09:24:44 PM 43.5240 -109.1610 247° West 458 527 39,000  Level FlightAware ADS-B
Tue 09:25:44 PM 43.4810 -109.2980 247° West 458 527 39,000  Level FlightAware ADS-B
Tue 09:26:18 PM 43.4570 -109.3750 247° West 458 527 39,000  Level FlightAware ADS-B
Tue 09:27:18 PM 43.4150 -109.5120 247° West 458 527 39,000  Level FlightAware ADS-B
Tue 09:28:06 PM 43.3810 -109.6220 247° West 458 527 39,000  Level FlightAware ADS-B
Tue 09:28:31 PM 43.3640 -109.6790 248° West 458 527 39,000  Level FlightAware ADS-B
Tue 09:29:32 PM 43.3210 -109.8180 247° West 458 527 39,000  Level FlightAware ADS-B
Tue 09:30:21 PM 43.2860 -109.9300 247° West 458 527 39,000  Level FlightAware ADS-B
Tue 09:31:10 PM 43.2520 -110.0410 247° West 458 527 39,000  Level FlightAware ADS-B
Tue 09:32:22 PM 43.1225 -110.4628 247° West 457 526 39,000 -136 Level Salt Lake Center
Tue 09:38:30 PM 42.7990 -111.4610 247° West 470 541 38,000 -150 Descending FlightAware ADS-B
Tue 09:39:03 PM 42.7694 -111.5520 246° West 469 540 38,000  Level FlightAware ADS-B
Tue 09:39:37 PM 42.7394 -111.6420 246° West 468 539 38,000  Level FlightAware ADS-B
Tue 09:40:07 PM 42.7123 -111.7230 246° West 467 537 38,000  Level FlightAware ADS-B
Tue 09:40:40 PM 42.6834 -111.8090 245° Southwest 465 535 38,000  Level FlightAware ADS-B
Tue 09:41:15 PM 42.6522 -111.9020 246° West 464 534 38,000  Level FlightAware ADS-B
Tue 09:41:27 PM 42.6416 -111.9335 245° Southwest 464 534 38,000  Level FlightAware ADS-B
Tue 09:41:46 PM 42.6249 -111.9830 245° Southwest 464 534 38,000  Level FlightAware ADS-B
Tue 09:42:00 PM 42.6124 -112.0204 246° West 464 534 38,000  Level FlightAware ADS-B
Tue 09:42:23 PM 42.5918 -112.0820 246° West 464 534 38,000  Level FlightAware ADS-B
Tue 09:42:33 PM 42.5829 -112.1079 245° Southwest 464 534 38,000  Level FlightAware ADS-B
Tue 09:43:20 PM 42.5401 -112.2341 245° Southwest 465 535 38,000  Level FlightAware ADS-B
Tue 09:43:24 PM 42.5371 -112.2430 246° West 464 534 38,000  Level FlightAware ADS-B
Tue 09:43:53 PM 42.5108 -112.3194 245° Southwest 466 536 38,000  Level FlightAware ADS-B
Tue 09:44:14 PM 42.4915 -112.3760 245° Southwest 465 535 38,000  Level FlightAware ADS-B
Tue 09:44:35 PM 42.4723 -112.4323 245° Southwest 469 540 38,000  Level FlightAware ADS-B
Tue 09:44:55 PM 42.4548 -112.4830 245° Southwest 469 540 38,000  Level FlightAware ADS-B
Tue 09:45:05 PM 42.4452 -112.5116 246° West 469 540 38,000  Level FlightAware ADS-B
Tue 09:45:36 PM 42.4170 -112.5936 245° Southwest 470 541 38,000  Level FlightAware ADS-B
Tue 09:45:43 PM 42.4109 -112.6110 245° Southwest 470 541 38,000  Level FlightAware ADS-B
Tue 09:46:14 PM 42.3826 -112.6936 245° Southwest 472 543 38,000  Level FlightAware ADS-B
Tue 09:46:20 PM 42.3770 -112.7100 245° Southwest 472 543 38,000  Level FlightAware ADS-B
Tue 09:46:34 PM 42.3634 -112.7493 245° Southwest 469 540 38,000  Level FlightAware ADS-B
Tue 09:46:54 PM 42.3450 -112.8020 245° Southwest 473 544 38,000  Level FlightAware ADS-B
Tue 09:47:05 PM 42.3354 -112.8300 245° Southwest 473 544 38,000  Level FlightAware ADS-B
Tue 09:47:26 PM 42.3155 -112.8870 245° Southwest 474 545 38,000  Level FlightAware ADS-B
Tue 09:47:35 PM 42.3090 -112.9053 245° Southwest 474 545 38,000  Level FlightAware ADS-B
Tue 09:47:46 PM 42.2969 -112.9401 245° Southwest 471 542 38,000  Level FlightAware ADS-B
Tue 09:48:11 PM 42.2740 -113.0060 245° Southwest 475 547 38,000  Level FlightAware ADS-B
Tue 09:48:18 PM 42.2680 -113.0233 245° Southwest 475 547 38,000  Level FlightAware ADS-B
Tue 09:48:38 PM 42.2482 -113.0800 245° Southwest 474 545 38,000  Level FlightAware ADS-B
Tue 09:48:52 PM 42.2353 -113.1168 245° Southwest 471 542 38,000  Level FlightAware ADS-B
Tue 09:49:13 PM 42.2162 -113.1710 245° Southwest 474 545 38,000  Level FlightAware ADS-B
Tue 09:49:23 PM 42.2068 -113.1981 245° Southwest 471 542 38,000  Level FlightAware ADS-B
Tue 09:49:54 PM 42.1771 -113.2820 245° Southwest 475 547 38,000  Level FlightAware ADS-B
Tue 09:50:05 PM 42.1666 -113.3118 245° Southwest 470 541 38,000  Level FlightAware ADS-B
Tue 09:50:46 PM 42.1283 -113.4200 244° Southwest 473 544 38,000  Level FlightAware ADS-B
Tue 09:50:47 PM 42.1312 -113.4116 65° Northeast 473 544 38,000  Level FlightAware ADS-B
Tue 09:51:17 PM 42.0991 -113.5024 245° Southwest 468 539 38,000  Level FlightAware ADS-B
Tue 09:51:30 PM 42.0871 -113.5360 244° Southwest 472 543 38,000  Level FlightAware ADS-B
Tue 09:52:06 PM 42.0528 -113.6320 244° Southwest 471 542 38,000  Level FlightAware ADS-B
Tue 09:52:08 PM 42.0510 -113.6369 244° Southwest 466 536 38,000  Level FlightAware ADS-B
Tue 09:52:31 PM 42.0297 -113.6963 244° Southwest 465 535 38,000  Level FlightAware ADS-B
Tue 09:52:51 PM 42.0123 -113.7446 244° Southwest 467 537 38,000  Level FlightAware ADS-B
Tue 09:53:23 PM 41.9810 -113.8320 244° Southwest 466 536 38,000  Level FlightAware ADS-B
Tue 09:53:45 PM 41.9605 -113.8890 244° Southwest 467 537 38,000  Level FlightAware ADS-B
Tue 09:53:54 PM 41.9520 -113.9120 244° Southwest 466 536 38,000  Level FlightAware ADS-B
Tue 09:54:04 PM 41.9436 -113.9358 245° Southwest 467 537 38,000  Level FlightAware ADS-B
Tue 09:54:24 PM 41.9240 -113.9900 244° Southwest 467 537 38,000  Level FlightAware ADS-B
Tue 09:54:38 PM 41.9115 -114.0249 244° Southwest 467 537 38,000  Level FlightAware ADS-B
Tue 09:54:49 PM 41.9003 -114.0556 244° Southwest 464 534 38,000  Level FlightAware ADS-B
Tue 09:54:54 PM 41.8953 -114.0690 243° Southwest 467 537 38,000  Level FlightAware ADS-B
Tue 09:55:07 PM 41.8830 -114.1032 244° Southwest 464 534 38,000  Level FlightAware ADS-B
Tue 09:55:25 PM 41.8662 -114.1490 244° Southwest 469 540 38,000  Level FlightAware ADS-B
Tue 09:55:54 PM 41.8388 -114.2242 244° Southwest 465 535 38,000  Level FlightAware ADS-B
Tue 09:56:10 PM 41.8233 -114.2670 244° Southwest 468 539 38,000  Level FlightAware ADS-B
Tue 09:56:24 PM 41.8103 -114.3025 244° Southwest 465 535 38,000  Level FlightAware ADS-B
Tue 09:56:41 PM 41.7936 -114.3480 244° Southwest 468 539 38,000  Level FlightAware ADS-B
Tue 09:57:07 PM 41.7696 -114.4136 244° Southwest 468 539 38,000  Level FlightAware ADS-B
Tue 09:57:11 PM 41.7650 -114.4260 244° Southwest 468 539 38,000  Level FlightAware ADS-B
Tue 09:57:37 PM 41.7401 -114.4936 244° Southwest 469 540 38,000  Level FlightAware ADS-B
Tue 09:57:44 PM 41.7334 -114.5120 244° Southwest 469 540 38,000  Level FlightAware ADS-B
Tue 09:58:19 PM 41.6997 -114.6030 244° Southwest 470 541 38,000  Level FlightAware ADS-B
Tue 09:58:51 PM 41.6692 -114.6849 244° Southwest 471 542 38,000  Level FlightAware ADS-B
Tue 09:59:10 PM 41.6510 -114.7340 244° Southwest 471 542 38,000  Level FlightAware ADS-B
Tue 09:59:35 PM 41.6271 -114.7986 244° Southwest 472 543 38,000  Level FlightAware ADS-B
Tue 09:59:41 PM 41.6206 -114.8160 243° Southwest 472 543 38,000  Level FlightAware ADS-B
Tue 10:00:12 PM 41.5912 -114.8950 244° Southwest 474 545 38,000  Level FlightAware ADS-B
Tue 10:00:14 PM 41.5882 -114.9028 243° Southwest 474 545 38,000  Level FlightAware ADS-B
Tue 10:00:43 PM 41.5607 -114.9770 244° Southwest 475 547 38,000  Level FlightAware ADS-B
Tue 10:00:47 PM 41.5564 -114.9878 242° Southwest 476 548 38,000  Level FlightAware ADS-B
Tue 10:01:17 PM 41.5273 -115.0654 243° Southwest 476 548 38,000  Level FlightAware ADS-B
Tue 10:01:19 PM 41.5251 -115.0710 242° Southwest 476 548 38,000  Level FlightAware ADS-B
Tue 10:01:50 PM 41.4946 -115.1520 243° Southwest 477 549 38,000  Level FlightAware ADS-B
Tue 10:02:03 PM 41.4812 -115.1881 244° Southwest 478 550 38,000  Level FlightAware ADS-B
Tue 10:02:24 PM 41.4604 -115.2430 243° Southwest 478 550 38,000  Level FlightAware ADS-B
Tue 10:03:04 PM 41.4212 -115.3465 243° Southwest 474 545 38,000  Level FlightAware ADS-B
Tue 10:04:12 PM 41.3540 -115.5230 243° Southwest 477 549 38,000  Level FlightAware ADS-B
Tue 10:05:16 PM 41.2890 -115.6920 243° Southwest 478 550 38,000  Level FlightAware ADS-B
Tue 10:06:01 PM 41.2450 -115.8060 243° Southwest 479 551 38,000  Level FlightAware ADS-B
Tue 10:06:48 PM 41.1970 -115.9310 243° Southwest 480 552 38,000  Level FlightAware ADS-B
Tue 10:07:51 PM 41.1430 -116.0720 243° Southwest 480 552 38,000  Level FlightAware ADS-B
Tue 10:08:30 PM 41.1100 -116.1590 243° Southwest 480 552 38,000  Level FlightAware ADS-B
Tue 10:09:42 PM 41.0480 -116.3200 243° Southwest 480 552 38,000  Level FlightAware ADS-B
Tue 10:10:30 PM 41.0070 -116.4270 243° Southwest 480 552 38,000  Level FlightAware ADS-B
Tue 10:11:04 PM 40.9780 -116.5020 243° Southwest 480 552 38,000  Level FlightAware ADS-B
Tue 10:11:28 PM 40.9570 -116.5560 243° Southwest 480 552 38,000  Level FlightAware ADS-B
Tue 10:12:36 PM 40.8990 -116.7070 243° Southwest 480 552 38,000  Level FlightAware ADS-B
Tue 10:13:00 PM 40.8780 -116.7610 243° Southwest 480 552 38,000  Level FlightAware ADS-B
Tue 10:13:48 PM 40.8370 -116.8670 243° Southwest 480 552 38,000  Level FlightAware ADS-B
Tue 10:14:36 PM 40.7960 -116.9740 243° Southwest 480 552 38,000  Level FlightAware ADS-B
Tue 10:15:37 PM 40.7440 -117.1100 243° Southwest 480 552 38,000  Level FlightAware ADS-B
Tue 10:16:18 PM 40.6090 -117.4128 240° Southwest 484 557 38,000  Level FlightAware ADS-B
Tue 10:17:06 PM 40.5580 -117.5377 242° Southwest 486 559 38,000  Level FlightAware ADS-B
Tue 10:17:36 PM 40.5268 -117.6139 242° Southwest 487 560 38,000  Level FlightAware ADS-B
Tue 10:18:06 PM 40.4954 -117.6901 242° Southwest 489 563 38,000  Level FlightAware ADS-B
Tue 10:18:46 PM 40.4514 -117.7966 242° Southwest 488 562 38,000  Level FlightAware ADS-B
Tue 10:19:16 PM 40.4187 -117.8755 241° Southwest 488 562 38,000  Level FlightAware ADS-B
Tue 10:19:58 PM 40.3736 -117.9840 241° Southwest 488 562 38,000 -250 Level FlightAware ADS-B
Tue 10:20:28 PM 40.3439 -118.0556 241° Southwest 486 559 37,700 -1,263 Descending FlightAware ADS-B
Tue 10:21:14 PM 40.2915 -118.1821 241° Southwest 490 564 36,400 -2,132 Descending FlightAware ADS-B
Tue 10:21:44 PM 40.2597 -118.2578 241° Southwest 495 570 35,000 -2,800 Descending FlightAware ADS-B
Tue 10:22:14 PM 40.2269 -118.3361 241° Southwest 497 572 33,600 -2,806 Descending FlightAware ADS-B
Tue 10:22:46 PM 40.1910 -118.4210 241° Southwest 497 572 32,100 -3,000 Descending FlightAware ADS-B
Tue 10:24:00 PM 40.0993 -118.6083 237° Southwest 503 579 28,300 -3,097 Descending FlightAware ADS-B
Tue 10:24:50 PM 40.0203 -118.7068 224° Southwest 498 573 25,700 -3,000 Descending FlightAware ADS-B
Tue 10:25:28 PM 39.9533 -118.7889 223° Southwest 491 565 23,900 -2,824 Descending FlightAware ADS-B
Tue 10:25:58 PM 39.9023 -118.8512 223° Southwest 483 556 22,500 -2,710 Descending FlightAware ADS-B
Tue 10:26:30 PM 39.8505 -118.9144 223° Southwest 474 545 21,100 -2,640 Descending FlightAware ADS-B
Tue 10:27:13 PM 39.7840 -118.9960 223° Southwest 464 534 19,200 -2,625 Descending FlightAware ADS-B
Tue 10:28:06 PM 39.7009 -119.0963 223° Southwest 446 513 16,900 -2,386 Descending FlightAware ADS-B
Tue 10:28:36 PM 39.6569 -119.1495 223° Southwest 428 493 15,900 -1,935 Descending FlightAware ADS-B
Tue 10:29:08 PM 39.6113 -119.2044 223° Southwest 408 470 14,900 -1,742 Descending FlightAware ADS-B
Tue 10:29:38 PM 39.5720 -119.2520 223° Southwest 391 450 14,100 -1,645 Descending FlightAware ADS-B
Tue 10:30:10 PM 39.5301 -119.3024 223° Southwest 376 433 13,200 -1,385 Descending FlightAware ADS-B
Tue 10:31:09 PM 39.4590 -119.3880 223° Southwest 347 399 12,000 -1,075 Descending FlightAware ADS-B
Tue 10:31:56 PM 39.4030 -119.4550 223° Southwest 338 389 11,300 -673 Descending FlightAware ADS-B
Tue 10:32:47 PM 39.3460 -119.5240 223° Southwest 330 380 10,900 -240 Descending FlightAware ADS-B
Tue 10:33:36 PM 39.2930 -119.5870 223° Southwest 305 351 10,900  Level FlightAware ADS-B
Tue 10:34:05 PM 39.2610 -119.6170 216° Southwest 307 353 10,900  Level FlightAware ADS-B
Tue 10:34:33 PM 39.2220 -119.6310 196° South 306 352 10,900 -125 Level FlightAware ADS-B
Tue 10:34:53 PM 39.1970 -119.6460 205° Southwest 298 343 10,800 -735 Descending FlightAware ADS-B
Tue 10:35:22 PM 39.1820 -119.6910 247° West 276 318 10,300 -1,000 Descending FlightAware ADS-B
Tue 10:35:53 PM 39.1880 -119.7380 279° West 262 302 9,800 -778 Descending FlightAware ADS-B
Tue 10:36:16 PM 39.2080 -119.7600 320° Northwest 242 278 9,600 -533 Descending FlightAware ADS-B
Tue 10:36:38 PM 39.2310 -119.7700 341° North 232 267 9,400 -203 Descending FlightAware ADS-B
Tue 10:37:15 PM 39.2700 -119.7690 North 218 251 9,400 -508 Level FlightAware ADS-B
Tue 10:37:37 PM 39.2910 -119.7690 360° North 212 244 8,900 -1,385 Descending FlightAware ADS-B
Tue 10:37:54 PM 39.3070 -119.7700 357° North 206 237 8,500 -1,400 Descending FlightAware ADS-B
Tue 10:38:07 PM 39.3190 -119.7700 360° North 194 223 8,200 -1,220 Descending FlightAware ADS-B
Tue 10:38:53 PM 39.3570 -119.7700 360° North 165 190 7,300 -1,063 Descending FlightAware ADS-B
Tue 10:39:26 PM 39.3810 -119.7700 360° North 156 180 6,800 -931 Descending FlightAware ADS-B
Tue 10:39:51 PM 39.3990 -119.7700 360° North 157 181 6,400 -1,059 Descending FlightAware ADS-B
Tue 10:40:17 PM 39.4180 -119.7700 360° North 150 173 5,900 -1,116 Descending FlightAware ADS-B
Tue 10:40:34 PM 39.4300 -119.7700 360° North 149 171 5,600 -973 Descending FlightAware ADS-B
Tue 10:40:54 PM 39.4430 -119.7690 North 150 173 5,300 -923 Descending FlightAware ADS-B
Tue 10:41:26 PM 39.4660 -119.7690 360° North 152 175 4,800 -913 Descending FlightAware ADS-B
Tue 10:41:40 PM 39.4750 -119.7690 360° North 153 176 4,600 -857 Descending FlightAware ADS-B
Tue 10:42:17 PM 39.4990 -119.7690 360° North 115 132 -7,459 Descending FlightAware ADS-B

Login

Don't have an account? Register now (free) for customized features, flight alerts, and more!